Time;durP1;ratioP1;P1;durP2;ratioP2;P2;SDS_P1;SDS_P2;PMS_P1;PMS_P2;Temp;Humidity;BMP_temperature;BMP_pressure;BME280_temperature;BME280_humidity;BME280_pressure;Samples;Min_cycle;Max_cycle;Signal;HPM_P1;HPM_P2
2023/06/01 00:00:56;;;;;;;4.20;3.90;;;17.10;99.90;;;;;;5002052;28;20350;-57
2023/06/01 00:03:25;;;;;;;7.00;4.00;;;17.10;99.90;;;;;;4996900;28;20204;-56
2023/06/01 00:05:52;;;;;;;4.77;4.47;;;16.90;99.90;;;;;;5000694;28;20271;-56
2023/06/01 00:08:22;;;;;;;4.53;4.23;;;16.80;99.90;;;;;;4995089;28;20203;-56
2023/06/01 00:10:49;;;;;;;7.43;4.83;;;16.70;99.90;;;;;;4991724;28;20237;-56
2023/06/01 00:13:16;;;;;;;4.53;4.17;;;16.70;99.90;;;;;;5000403;28;20195;-56
2023/06/01 00:15:44;;;;;;;4.33;4.03;;;16.60;99.90;;;;;;5002801;28;20277;-56
2023/06/01 00:18:12;;;;;;;4.63;4.20;;;16.60;99.90;;;;;;4990284;28;20206;-56
2023/06/01 00:20:39;;;;;;;4.77;4.30;;;16.50;99.90;;;;;;4996190;28;20224;-56
2023/06/01 00:23:08;;;;;;;4.00;3.80;;;16.50;99.90;;;;;;4994708;28;20584;-56
2023/06/01 00:25:36;;;;;;;4.67;4.00;;;16.50;99.90;;;;;;5003249;28;20250;-56
2023/06/01 00:28:03;;;;;;;7.17;4.30;;;16.50;99.90;;;;;;5000342;28;20251;-56
2023/06/01 00:30:30;;;;;;;4.67;3.70;;;16.40;99.90;;;;;;5002294;28;20297;-56
2023/06/01 00:32:57;;;;;;;4.57;4.17;;;16.40;99.90;;;;;;4993483;28;20203;-56
2023/06/01 00:35:24;;;;;;;6.17;5.77;;;16.40;99.90;;;;;;4992060;28;20216;-56
2023/06/01 00:37:51;;;;;;;5.87;3.50;;;16.40;99.90;;;;;;4999218;28;20621;-56
2023/06/01 00:40:18;;;;;;;4.30;4.00;;;16.30;99.90;;;;;;4999165;28;20223;-56
2023/06/01 00:42:46;;;;;;;5.40;4.70;;;16.30;99.90;;;;;;5000589;28;20293;-56
2023/06/01 00:45:13;;;;;;;4.30;3.90;;;16.30;99.90;;;;;;5009593;28;20195;-56
2023/06/01 00:47:42;;;;;;;3.97;3.63;;;16.30;99.90;;;;;;4994780;28;20207;-56
2023/06/01 00:50:11;;;;;;;4.93;4.47;;;16.30;99.90;;;;;;4994344;28;20219;-56
2023/06/01 00:52:39;;;;;;;4.50;4.27;;;16.30;99.90;;;;;;4991497;28;20200;-56
2023/06/01 00:55:07;;;;;;;5.60;4.47;;;16.20;99.90;;;;;;4991165;28;20224;-57
2023/06/01 00:57:35;;;;;;;4.83;4.40;;;16.20;99.90;;;;;;4993692;28;20259;-56
2023/06/01 01:00:09;;;;;;;5.67;4.73;;;16.20;99.90;;;;;;4994700;28;20223;-56
2023/06/01 01:02:38;;;;;;;4.57;4.17;;;16.10;99.90;;;;;;5004035;28;20199;-56
2023/06/01 01:05:09;;;;;;;4.53;4.10;;;16.10;99.90;;;;;;5015400;28;20199;-56
2023/06/01 01:07:44;;;;;;;6.13;5.50;;;16.10;99.90;;;;;;5006160;28;20196;-56
2023/06/01 01:10:20;;;;;;;5.40;4.87;;;16.10;99.90;;;;;;5000751;28;20239;-56
2023/06/01 01:12:55;;;;;;;4.73;4.43;;;16.00;99.90;;;;;;4995961;28;20208;-56
2023/06/01 01:15:30;;;;;;;5.80;5.30;;;16.00;99.90;;;;;;5001503;28;20248;-55
2023/06/01 01:18:03;;;;;;;6.60;6.00;;;15.90;99.90;;;;;;4995416;28;20211;-56
2023/06/01 01:20:35;;;;;;;6.47;5.53;;;15.90;99.90;;;;;;5006940;28;20215;-56
2023/06/01 01:23:20;;;;;;;6.27;5.80;;;15.80;99.90;;;;;;4991751;28;20681;-56
2023/06/01 01:26:10;;;;;;;6.77;6.10;;;15.80;99.90;;;;;;5000715;28;20207;-56
2023/06/01 01:28:42;;;;;;;5.33;4.90;;;15.70;99.90;;;;;;5006853;28;20202;-56
2023/06/01 01:31:11;;;;;;;6.53;5.63;;;15.70;99.90;;;;;;5002530;28;20254;-56
2023/06/01 01:33:40;;;;;;;5.50;5.07;;;15.70;99.90;;;;;;4995839;28;20261;-56
2023/06/01 01:36:09;;;;;;;6.53;5.87;;;15.60;99.90;;;;;;4993127;28;20592;-56
2023/06/01 01:38:37;;;;;;;7.80;6.13;;;15.60;99.90;;;;;;4993139;28;20288;-56
2023/06/01 01:41:04;;;;;;;5.93;5.47;;;15.60;99.90;;;;;;5000038;28;20216;-56
2023/06/01 01:43:32;;;;;;;6.23;5.67;;;15.50;99.90;;;;;;4994093;28;20203;-56
2023/06/01 01:46:08;;;;;;;6.40;6.00;;;15.40;99.90;;;;;;5001636;28;20199;-56
2023/06/01 01:48:42;;;;;;;5.27;4.87;;;15.40;99.90;;;;;;4998135;28;20225;-56
2023/06/01 01:51:16;;;;;;;6.73;6.03;;;15.40;99.90;;;;;;4975911;28;20224;-56
2023/06/01 01:53:46;;;;;;;6.63;5.87;;;15.40;99.90;;;;;;4983949;28;20203;-56
2023/06/01 01:56:15;;;;;;;5.80;5.37;;;15.40;99.90;;;;;;5004422;28;20261;-56
2023/06/01 01:58:43;;;;;;;5.90;5.40;;;15.40;99.90;;;;;;4994612;28;20214;-56
2023/06/01 02:01:15;;;;;;;7.90;5.43;;;15.40;99.90;;;;;;4987467;28;20216;-56
2023/06/01 02:03:42;;;;;;;7.37;5.30;;;15.30;99.90;;;;;;5000829;28;20218;-56
2023/06/01 02:06:14;;;;;;;5.50;5.20;;;15.30;99.90;;;;;;5007184;28;20253;-56
2023/06/01 02:08:41;;;;;;;8.03;6.50;;;15.40;99.90;;;;;;4998185;28;20215;-56
2023/06/01 02:11:09;;;;;;;6.30;5.67;;;15.40;99.90;;;;;;4985662;28;20241;-56
2023/06/01 02:13:36;;;;;;;6.33;5.03;;;15.40;99.90;;;;;;4996133;28;20238;-56
2023/06/01 02:16:03;;;;;;;5.33;5.03;;;15.30;99.90;;;;;;5001369;28;20294;-56
2023/06/01 02:18:31;;;;;;;5.63;5.00;;;15.30;99.90;;;;;;5009632;28;20257;-56
2023/06/01 02:20:58;;;;;;;5.63;5.17;;;15.30;99.90;;;;;;5001843;28;20606;-56
2023/06/01 02:23:25;;;;;;;5.67;5.00;;;15.30;99.90;;;;;;5008437;28;20257;-56
2023/06/01 02:25:53;;;;;;;6.70;5.10;;;15.20;99.90;;;;;;5009175;28;20250;-56
2023/06/01 02:28:19;;;;;;;6.53;4.80;;;15.20;99.90;;;;;;5002487;28;20207;-56
2023/06/01 02:30:46;;;;;;;9.73;5.17;;;15.20;99.90;;;;;;5002907;28;20281;-56
2023/06/01 02:33:13;;;;;;;5.83;5.37;;;15.20;99.90;;;;;;5009350;28;20235;-56
2023/06/01 02:35:42;;;;;;;4.97;4.47;;;15.20;99.90;;;;;;4990299;28;20640;-56
2023/06/01 02:38:09;;;;;;;6.03;5.47;;;15.10;99.90;;;;;;4993838;28;20613;-56
2023/06/01 02:40:36;;;;;;;5.20;4.80;;;15.10;99.90;;;;;;4994168;28;20226;-58
2023/06/01 02:43:03;;;;;;;5.57;5.17;;;15.00;99.90;;;;;;4995750;28;20199;-56
2023/06/01 02:45:30;;;;;;;8.13;5.83;;;15.00;99.90;;;;;;5004755;28;20654;-56
2023/06/01 02:47:57;;;;;;;6.93;5.97;;;15.00;99.90;;;;;;5008112;28;20207;-56
2023/06/01 02:50:24;;;;;;;5.70;5.30;;;14.90;99.90;;;;;;5000985;28;20224;-56
2023/06/01 02:52:53;;;;;;;4.73;4.43;;;14.90;99.90;;;;;;5003040;28;20210;-56
2023/06/01 02:55:20;;;;;;;5.53;5.03;;;14.90;99.90;;;;;;5008958;28;20231;-56
2023/06/01 02:57:47;;;;;;;6.77;6.03;;;14.90;99.90;;;;;;4999920;28;20582;-56
2023/06/01 03:00:17;;;;;;;6.63;6.07;;;14.90;99.90;;;;;;4999738;28;20215;-56
2023/06/01 03:02:44;;;;;;;8.70;7.10;;;14.80;99.90;;;;;;5003885;28;20628;-56
2023/06/01 03:05:14;;;;;;;6.20;5.70;;;14.80;99.90;;;;;;4990401;28;20195;-56
2023/06/01 03:07:41;;;;;;;6.13;5.47;;;14.80;99.90;;;;;;5001717;28;20204;-56
2023/06/01 03:10:10;;;;;;;7.93;7.13;;;14.70;99.90;;;;;;4991078;28;20664;-55
2023/06/01 03:12:37;;;;;;;5.90;5.50;;;14.70;99.90;;;;;;5001228;28;20597;-56
2023/06/01 03:15:05;;;;;;;5.70;5.20;;;14.60;99.90;;;;;;5008134;28;20211;-56
2023/06/01 03:17:33;;;;;;;7.13;5.33;;;14.60;99.90;;;;;;5005280;28;20195;-56
2023/06/01 03:20:00;;;;;;;5.97;5.43;;;14.60;99.90;;;;;;4995233;28;20311;-56
2023/06/01 03:22:27;;;;;;;5.47;5.17;;;14.50;99.90;;;;;;5004834;28;20200;-56
2023/06/01 03:24:54;;;;;;;5.90;5.30;;;14.50;99.90;;;;;;5001037;28;20200;-58
2023/06/01 03:27:23;;;;;;;5.87;5.33;;;14.60;99.90;;;;;;4998011;28;20200;-56
2023/06/01 03:29:50;;;;;;;7.20;6.53;;;14.50;99.90;;;;;;5004525;28;20294;-56
2023/06/01 03:32:17;;;;;;;5.57;5.10;;;14.60;99.90;;;;;;5007825;28;20211;-56
2023/06/01 03:34:43;;;;;;;5.10;4.47;;;14.60;99.90;;;;;;5001454;28;20208;-56
2023/06/01 03:37:11;;;;;;;6.83;6.17;;;14.60;99.90;;;;;;5013021;28;20735;-56
2023/06/01 03:39:39;;;;;;;6.43;5.33;;;14.60;99.90;;;;;;4996194;28;20577;-56
2023/06/01 03:42:09;;;;;;;6.03;5.53;;;14.60;99.90;;;;;;5003286;28;20282;-56
2023/06/01 03:44:37;;;;;;;7.17;5.60;;;14.50;99.90;;;;;;5013216;28;20257;-55
2023/06/01 03:47:05;;;;;;;6.57;5.97;;;14.60;99.90;;;;;;5008689;28;20259;-56
2023/06/01 03:49:32;;;;;;;6.80;5.83;;;14.60;99.90;;;;;;5002487;28;20618;-56
2023/06/01 03:51:59;;;;;;;7.10;5.80;;;14.70;99.90;;;;;;5001032;28;20208;-56
2023/06/01 03:54:26;;;;;;;7.90;7.00;;;14.70;99.90;;;;;;4991376;28;20286;-56
2023/06/01 03:56:53;;;;;;;7.17;6.47;;;14.70;99.90;;;;;;5010495;28;20219;-56
2023/06/01 03:59:20;;;;;;;6.93;6.33;;;14.70;99.90;;;;;;4999332;28;20212;-56
2023/06/01 04:01:49;;;;;;;7.50;6.77;;;14.80;99.90;;;;;;4993010;28;20302;-56
2023/06/01 04:04:17;;;;;;;7.37;6.87;;;14.90;99.90;;;;;;4990519;28;20208;-56
2023/06/01 04:06:45;;;;;;;7.17;6.47;;;14.90;99.90;;;;;;4993438;28;20208;-56
2023/06/01 04:09:14;;;;;;;7.53;6.97;;;14.90;99.90;;;;;;5000111;28;20204;-56
2023/06/01 04:11:41;;;;;;;7.63;7.03;;;15.00;99.90;;;;;;5048500;22;20310;-57
2023/06/01 04:14:08;;;;;;;7.20;6.57;;;15.00;99.90;;;;;;5026238;28;20273;-57
2023/06/01 04:16:35;;;;;;;10.50;7.03;;;15.00;99.90;;;;;;5016224;28;20364;-58
2023/06/01 04:19:04;;;;;;;7.43;6.77;;;15.10;99.90;;;;;;5035154;28;20291;-57
2023/06/01 04:21:32;;;;;;;13.77;7.43;;;15.00;99.90;;;;;;5012475;28;20238;-57
2023/06/01 04:23:59;;;;;;;8.03;6.40;;;15.00;99.90;;;;;;5010293;28;20297;-59
2023/06/01 04:26:27;;;;;;;8.03;7.33;;;15.00;99.90;;;;;;5007974;28;20199;-57
2023/06/01 04:28:56;;;;;;;6.23;5.70;;;15.00;99.90;;;;;;5010607;28;20207;-57
2023/06/01 04:31:23;;;;;;;7.00;6.30;;;15.00;99.90;;;;;;5010844;28;20223;-57
2023/06/01 04:33:52;;;;;;;8.13;7.43;;;15.10;99.90;;;;;;5010337;28;20203;-57
2023/06/01 04:36:22;;;;;;;7.27;6.70;;;15.10;99.90;;;;;;5017590;28;20271;-58
2023/06/01 04:38:52;;;;;;;8.00;6.03;;;15.20;99.90;;;;;;5022033;28;20203;-57
2023/06/01 04:41:20;;;;;;;7.43;6.40;;;15.40;99.90;;;;;;5007134;28;20220;-57
2023/06/01 04:43:51;;;;;;;7.90;6.97;;;15.60;99.90;;;;;;5000152;28;20207;-57
2023/06/01 04:46:19;;;;;;;6.80;6.20;;;15.70;99.90;;;;;;5010500;28;20245;-59
2023/06/01 04:48:46;;;;;;;6.30;5.70;;;15.90;99.90;;;;;;5010460;28;20249;-60
2023/06/01 04:51:18;;;;;;;6.77;6.17;;;16.10;99.90;;;;;;4990656;28;20220;-59
2023/06/01 04:53:49;;;;;;;10.20;6.07;;;16.20;99.90;;;;;;5017951;28;20203;-60
2023/06/01 04:56:18;;;;;;;7.20;6.60;;;16.30;99.90;;;;;;5030226;28;20222;-59
2023/06/01 04:58:47;;;;;;;7.07;6.47;;;16.40;99.90;;;;;;5013649;28;20233;-60
2023/06/01 05:01:15;;;;;;;6.67;6.13;;;16.50;99.90;;;;;;5004024;28;20336;-58
2023/06/01 05:03:44;;;;;;;5.97;5.43;;;16.50;99.90;;;;;;5001173;28;20289;-59
2023/06/01 05:06:12;;;;;;;6.27;5.77;;;16.70;99.90;;;;;;5011469;28;20297;-58
2023/06/01 05:08:39;;;;;;;5.70;5.27;;;16.90;99.90;;;;;;5009214;28;20203;-58
2023/06/01 05:11:08;;;;;;;10.80;6.77;;;17.10;99.90;;;;;;5018640;28;20572;-57
2023/06/01 05:13:36;;;;;;;8.17;5.83;;;17.60;99.90;;;;;;5013974;28;20286;-57
2023/06/01 05:16:04;;;;;;;7.00;6.40;;;18.40;99.90;;;;;;5016373;28;20666;-59
2023/06/01 05:18:31;;;;;;;7.23;5.20;;;19.20;99.90;;;;;;5016738;28;20576;-58
2023/06/01 05:20:58;;;;;;;6.63;5.17;;;20.20;99.90;;;;;;5018315;28;20281;-58
2023/06/01 05:23:25;;;;;;;6.07;5.67;;;20.60;99.90;;;;;;5009221;28;20199;-58
2023/06/01 05:25:52;;;;;;;5.40;5.00;;;21.30;99.90;;;;;;5007992;28;20200;-58
2023/06/01 05:28:21;;;;;;;5.70;5.30;;;21.90;99.90;;;;;;5010063;28;20215;-58
2023/06/01 05:30:48;;;;;;;7.03;5.47;;;22.00;99.90;;;;;;5009833;28;20284;-58
2023/06/01 05:33:15;;;;;;;5.77;5.20;;;22.60;99.90;;;;;;5010644;28;20194;-58
2023/06/01 05:35:42;;;;;;;5.90;5.23;;;23.00;99.90;;;;;;5015509;28;20215;-58
2023/06/01 05:38:09;;;;;;;6.50;6.10;;;23.30;99.90;;;;;;5009835;28;20265;-58
2023/06/01 05:40:36;;;;;;;5.03;4.80;;;23.30;99.90;;;;;;5005182;28;20219;-58
2023/06/01 05:43:03;;;;;;;6.37;5.93;;;24.10;99.90;;;;;;5016191;28;20213;-58
2023/06/01 05:45:32;;;;;;;7.10;5.13;;;24.20;99.90;;;;;;5009637;28;20589;-58
2023/06/01 05:47:59;;;;;;;5.90;5.37;;;24.30;99.90;;;;;;5009951;28;20525;-58
2023/06/01 05:50:26;;;;;;;6.47;5.07;;;24.70;99.90;;;;;;5021444;28;20218;-59
2023/06/01 05:52:53;;;;;;;6.53;5.53;;;24.90;99.90;;;;;;5013226;28;20711;-58
2023/06/01 05:55:20;;;;;;;5.43;4.73;;;25.40;99.90;;;;;;5012536;28;20207;-60
2023/06/01 05:57:47;;;;;;;5.57;5.17;;;26.00;99.90;;;;;;5008557;28;20530;-58
2023/06/01 06:00:16;;;;;;;5.70;5.17;;;26.00;99.90;;;;;;5019101;28;20219;-58
2023/06/01 06:02:44;;;;;;;5.83;5.30;;;26.40;99.90;;;;;;5020372;28;20277;-58
2023/06/01 06:05:13;;;;;;;6.37;5.97;;;26.60;99.90;;;;;;5027846;28;20521;-58
2023/06/01 06:07:40;;;;;;;5.63;5.03;;;26.50;99.90;;;;;;5013059;28;20200;-58
2023/06/01 06:10:08;;;;;;;5.83;5.30;;;25.90;99.90;;;;;;5007958;28;20305;-58
2023/06/01 06:12:35;;;;;;;6.37;4.97;;;26.10;99.90;;;;;;5008678;28;20203;-58
2023/06/01 06:15:04;;;;;;;8.20;5.57;;;26.50;99.90;;;;;;5007626;28;20219;-58
2023/06/01 06:17:31;;;;;;;10.63;6.73;;;26.00;99.90;;;;;;5009907;28;20235;-58
2023/06/01 06:19:59;;;;;;;8.83;5.47;;;24.90;99.90;;;;;;5011868;28;20203;-58
2023/06/01 06:22:26;;;;;;;7.43;5.77;;;25.00;99.90;;;;;;5009424;28;20231;-58
2023/06/01 06:24:53;;;;;;;6.07;5.67;;;25.50;99.90;;;;;;5012961;28;20579;-58
2023/06/01 06:27:20;;;;;;;8.10;6.00;;;25.70;99.90;;;;;;5013070;28;20246;-58
2023/06/01 06:29:47;;;;;;;6.33;5.60;;;26.50;99.90;;;;;;5021577;28;20204;-58
2023/06/01 06:32:14;;;;;;;6.87;6.27;;;27.00;99.90;;;;;;5018760;28;20692;-58
2023/06/01 06:34:42;;;;;;;6.27;5.67;;;27.30;99.90;;;;;;5014074;28;20233;-59
2023/06/01 06:37:11;;;;;;;6.40;5.83;;;27.70;99.70;;;;;;5022038;28;20219;-59
2023/06/01 06:39:38;;;;;;;12.73;6.33;;;28.00;98.90;;;;;;5012208;28;20207;-59
2023/06/01 06:42:06;;;;;;;9.85;5.93;;;27.80;99.90;;;;;;5013195;28;20231;-58
2023/06/01 06:44:33;;;;;;;6.20;5.68;;;27.50;99.90;;;;;;5012615;28;20254;-59
2023/06/01 06:47:01;;;;;;;6.88;6.18;;;28.50;97.90;;;;;;5006435;28;20689;-59
2023/06/01 06:49:28;;;;;;;6.45;5.88;;;27.90;97.10;;;;;;5002681;28;20210;-58
2023/06/01 06:51:55;;;;;;;6.60;6.00;;;27.20;98.70;;;;;;4998952;28;20281;-59
2023/06/01 06:54:24;;;;;;;9.07;6.20;;;26.70;99.30;;;;;;5001247;28;20239;-58
2023/06/01 06:56:51;;;;;;;7.13;6.43;;;27.30;99.00;;;;;;5002083;28;20237;-58
2023/06/01 06:59:18;;;;;;;7.28;6.57;;;27.80;97.90;;;;;;5004523;28;20205;-59
2023/06/01 07:01:45;;;;;;;6.35;5.80;;;28.60;97.20;;;;;;5010458;28;20230;-58
2023/06/01 07:04:12;;;;;;;7.30;5.82;;;28.50;96.80;;;;;;5005755;28;20736;-59
2023/06/01 07:06:39;;;;;;;7.53;6.47;;;28.90;96.40;;;;;;5000213;28;20265;-59
2023/06/01 07:09:07;;;;;;;14.88;5.95;;;29.00;96.00;;;;;;5000161;28;20301;-58
2023/06/01 07:11:35;;;;;;;6.60;6.00;;;29.00;95.70;;;;;;5007511;28;20233;-59
2023/06/01 07:14:02;;;;;;;7.90;7.20;;;29.50;96.20;;;;;;5007811;28;20274;-59
2023/06/01 07:16:30;;;;;;;7.53;6.72;;;29.30;95.20;;;;;;5007143;28;20731;-60
2023/06/01 07:18:57;;;;;;;7.95;5.68;;;29.00;96.60;;;;;;5012600;28;20302;-59
2023/06/01 07:21:24;;;;;;;8.43;6.65;;;29.00;96.00;;;;;;5022499;28;20234;-59
2023/06/01 07:23:51;;;;;;;7.35;6.10;;;29.30;93.90;;;;;;5013485;28;20215;-59
2023/06/01 07:26:18;;;;;;;7.22;6.63;;;29.30;94.60;;;;;;5017615;28;20194;-59
2023/06/01 07:28:49;;;;;;;7.55;6.95;;;28.90;94.20;;;;;;5019313;28;20204;-59
2023/06/01 07:31:16;;;;;;;6.60;6.20;;;28.30;95.60;;;;;;5012743;28;20223;-59
2023/06/01 07:33:43;;;;;;;8.85;6.10;;;28.80;94.60;;;;;;5009255;28;20210;-59
2023/06/01 07:36:09;;;;;;;7.65;6.97;;;29.10;94.40;;;;;;5008437;28;21038;-58
2023/06/01 07:38:36;;;;;;;7.10;6.43;;;29.20;94.50;;;;;;5016148;28;20198;-59
2023/06/01 07:41:03;;;;;;;8.25;6.30;;;28.70;94.20;;;;;;5017642;28;20222;-58
2023/06/01 07:43:30;;;;;;;6.05;5.63;;;29.30;94.50;;;;;;5016823;28;20206;-59
2023/06/01 07:45:59;;;;;;;7.85;7.15;;;29.40;94.20;;;;;;5015236;28;20681;-59
2023/06/01 07:48:26;;;;;;;6.35;5.93;;;29.90;93.00;;;;;;5019650;28;20600;-58
2023/06/01 07:50:53;;;;;;;7.68;6.85;;;29.70;93.20;;;;;;5010093;28;20318;-58
2023/06/01 07:53:21;;;;;;;6.57;6.05;;;28.80;93.30;;;;;;5022402;28;20265;-58
2023/06/01 07:55:50;;;;;;;7.28;6.72;;;28.70;95.00;;;;;;5007307;28;20261;-59
2023/06/01 07:58:17;;;;;;;7.70;6.97;;;27.90;94.70;;;;;;5006480;28;20741;-59
2023/06/01 08:00:44;;;;;;;7.27;6.57;;;27.60;94.90;;;;;;5010986;28;20699;-58
2023/06/01 08:03:12;;;;;;;7.70;7.00;;;26.90;96.10;;;;;;5021289;28;20686;-58
2023/06/01 08:05:42;;;;;;;8.47;7.57;;;26.50;96.80;;;;;;5011208;28;20203;-58
2023/06/01 08:08:10;;;;;;;8.47;7.77;;;26.70;96.90;;;;;;5007087;28;20199;-58
2023/06/01 08:10:39;;;;;;;7.33;6.73;;;27.20;96.40;;;;;;5013301;28;20227;-59
2023/06/01 08:13:07;;;;;;;9.30;7.27;;;27.30;96.90;;;;;;5015669;28;20254;-59
2023/06/01 08:15:36;;;;;;;7.37;6.70;;;27.80;95.40;;;;;;5016155;28;20218;-59
2023/06/01 08:18:04;;;;;;;7.93;7.13;;;27.90;94.90;;;;;;5026170;28;20273;-59
2023/06/01 08:20:33;;;;;;;9.37;8.40;;;28.20;94.10;;;;;;5018259;28;20223;-58
2023/06/01 08:23:01;;;;;;;8.77;7.43;;;28.10;95.20;;;;;;5018866;28;20213;-58
2023/06/01 08:25:28;;;;;;;7.77;7.27;;;28.00;94.30;;;;;;5011237;28;20253;-59
2023/06/01 08:27:56;;;;;;;10.47;9.10;;;27.70;96.90;;;;;;5008125;28;20257;-59
2023/06/01 08:30:23;;;;;;;8.67;7.03;;;27.70;94.80;;;;;;5005237;28;20224;-59
2023/06/01 08:32:50;;;;;;;7.20;6.60;;;28.10;94.30;;;;;;5017602;28;20223;-59
2023/06/01 08:35:18;;;;;;;7.73;7.13;;;28.40;95.00;;;;;;5017113;28;20389;-59
2023/06/01 08:37:48;;;;;;;8.75;8.15;;;28.30;95.40;;;;;;5022467;28;20225;-59
2023/06/01 08:40:15;;;;;;;8.53;7.73;;;28.10;95.60;;;;;;5018052;28;20273;-59
2023/06/01 08:42:50;;;;;;;8.63;7.28;;;28.00;95.30;;;;;;5016031;28;20274;-59
2023/06/01 08:45:18;;;;;;;14.63;8.57;;;27.90;95.90;;;;;;5014112;28;20605;-59
2023/06/01 08:47:47;;;;;;;7.27;6.57;;;27.60;94.90;;;;;;5000334;28;20204;-58
2023/06/01 08:50:16;;;;;;;7.95;7.15;;;27.70;95.40;;;;;;5020989;28;20807;-57
2023/06/01 08:52:47;;;;;;;9.23;8.33;;;27.30;96.50;;;;;;5016137;28;20234;-66
2023/06/01 08:55:15;;;;;;;8.95;7.85;;;27.70;94.60;;;;;;5021144;28;20264;-66
2023/06/01 08:57:42;;;;;;;11.43;8.20;;;28.20;96.40;;;;;;5019967;28;20215;-66
2023/06/01 09:00:11;;;;;;;8.05;7.45;;;28.10;94.10;;;;;;5004622;28;20309;-64
2023/06/01 09:02:39;;;;;;;7.20;6.60;;;28.30;94.20;;;;;;5007779;28;20207;-69
2023/06/01 09:05:07;;;;;;;8.43;7.67;;;28.80;95.40;;;;;;5009920;28;20205;-66
2023/06/01 09:07:35;;;;;;;8.15;7.40;;;28.30;94.50;;;;;;5022039;28;20194;-67
2023/06/01 09:10:04;;;;;;;8.88;7.13;;;28.90;93.80;;;;;;5024630;28;20203;-66
2023/06/01 09:12:32;;;;;;;10.40;9.25;;;29.10;94.10;;;;;;4996909;28;20265;-65
2023/06/01 09:15:18;;;;;;;9.55;8.00;;;29.20;92.60;;;;;;5010172;28;20203;-66
2023/06/01 09:17:47;;;;;;;11.40;7.97;;;29.30;93.40;;;;;;5000461;28;20289;-72
2023/06/01 09:20:16;;;;;;;10.50;8.73;;;29.80;93.30;;;;;;5011984;28;20246;-64
2023/06/01 09:22:45;;;;;;;9.30;8.38;;;29.30;94.40;;;;;;5000197;28;20207;-54
2023/06/01 09:25:14;;;;;;;10.32;9.43;;;29.40;94.00;;;;;;5001094;28;20289;-54
2023/06/01 09:27:47;;;;;;;9.57;8.80;;;29.20;93.80;;;;;;5007789;28;20747;-55
2023/06/01 09:30:14;;;;;;;10.07;9.20;;;29.20;94.50;;;;;;5011876;28;20466;-67
2023/06/01 09:32:42;;;;;;;9.05;8.25;;;28.90;94.80;;;;;;5010170;28;20211;-71
2023/06/01 09:35:09;;;;;;;9.40;8.63;;;29.20;94.40;;;;;;5005484;28;20200;-64
2023/06/01 09:37:38;;;;;;;8.65;7.85;;;28.90;95.50;;;;;;5008566;28;20285;-68
2023/06/01 09:40:19;;;;;;;9.35;8.40;;;29.70;93.20;;;;;;5003510;28;20199;-67
2023/06/01 09:42:49;;;;;;;9.25;8.43;;;30.40;92.40;;;;;;5001551;28;20561;-66
2023/06/01 09:45:19;;;;;;;9.98;9.05;;;29.80;93.40;;;;;;5004662;28;20199;-67
2023/06/01 09:47:46;;;;;;;11.18;10.05;;;29.00;93.90;;;;;;5002623;28;20540;-67
2023/06/01 09:50:33;;;;;;;10.38;9.27;;;28.80;93.10;;;;;;5003449;28;20606;-66
2023/06/01 09:53:00;;;;;;;10.68;9.35;;;28.70;94.40;;;;;;5003966;28;20298;-65
2023/06/01 09:55:29;;;;;;;10.00;9.02;;;28.70;93.80;;;;;;5009778;28;20281;-55
2023/06/01 09:58:21;;;;;;;9.52;8.60;;;29.10;94.30;;;;;;5019784;28;20246;-54
2023/06/01 10:00:49;;;;;;;11.70;7.63;;;28.90;94.00;;;;;;5015017;28;20306;-54
2023/06/01 10:03:16;;;;;;;12.63;8.80;;;28.70;96.10;;;;;;5027682;28;20269;-54
2023/06/01 10:05:44;;;;;;;9.87;8.87;;;28.90;93.70;;;;;;5013418;28;20203;-54
2023/06/01 10:08:13;;;;;;;10.53;8.67;;;28.00;94.00;;;;;;5013395;28;20274;-54
2023/06/01 10:10:44;;;;;;;10.90;9.83;;;27.70;94.90;;;;;;5013429;28;20314;-54
2023/06/01 10:13:11;;;;;;;9.10;8.20;;;26.70;95.20;;;;;;5010073;28;20268;-55
2023/06/01 10:15:39;;;;;;;11.60;8.70;;;27.20;95.50;;;;;;5017452;28;20286;-54
2023/06/01 10:18:06;;;;;;;8.47;7.70;;;27.80;94.90;;;;;;5037472;22;20230;-53
2023/06/01 10:20:34;;;;;;;8.90;7.73;;;27.90;93.50;;;;;;5015221;28;20206;-52
2023/06/01 10:23:02;;;;;;;7.93;7.23;;;28.20;94.00;;;;;;5016266;28;20573;-52
2023/06/01 10:25:35;;;;;;;8.27;6.97;;;27.90;94.60;;;;;;5008360;28;20692;-52
2023/06/01 10:28:07;;;;;;;9.80;6.37;;;27.60;93.30;;;;;;5012258;28;20219;-52
2023/06/01 10:30:34;;;;;;;8.83;6.13;;;27.50;94.20;;;;;;5010194;28;20207;-53
2023/06/01 10:33:02;;;;;;;9.93;7.07;;;27.40;93.30;;;;;;5013382;28;20680;-53
2023/06/01 10:35:53;;;;;;;7.40;6.80;;;27.90;94.70;;;;;;5009910;28;20265;-53
2023/06/01 10:38:24;;;;;;;6.77;5.97;;;27.90;93.70;;;;;;5010982;28;20658;-52
2023/06/01 10:40:51;;;;;;;6.10;5.50;;;28.00;92.70;;;;;;5008263;28;20217;-53
2023/06/01 10:43:42;;;;;;;6.57;5.30;;;28.30;94.00;;;;;;5017603;28;20253;-61
2023/06/01 10:46:40;;;;;;;5.70;5.20;;;28.90;90.80;;;;;;5007200;28;20195;-61
2023/06/01 10:49:07;;;;;;;7.45;5.13;;;29.00;91.90;;;;;;5023246;28;20195;-63
2023/06/01 10:51:34;;;;;;;4.85;4.45;;;28.80;91.80;;;;;;5013195;28;20199;-64
2023/06/01 10:54:38;;;;;;;5.15;4.85;;;28.70;91.80;;;;;;5013882;28;20207;-61
2023/06/01 10:57:24;;;;;;;4.55;4.25;;;28.70;90.80;;;;;;5009714;28;20226;-60
2023/06/01 11:00:16;;;;;;;4.88;4.55;;;28.20;94.00;;;;;;5001490;28;20203;-61
2023/06/01 11:02:52;;;;;;;6.35;5.85;;;28.00;93.20;;;;;;5001937;28;20259;-62
2023/06/01 11:05:43;;;;;;;8.82;5.82;;;27.90;93.90;;;;;;5004286;28;20551;-62
2023/06/01 11:08:48;;;;;;;5.55;5.15;;;27.40;93.90;;;;;;5001603;28;20211;-59
2023/06/01 11:11:16;;;;;;;6.40;5.80;;;26.80;94.80;;;;;;5001588;28;20257;-54
2023/06/01 11:13:43;;;;;;;6.93;5.50;;;26.60;95.20;;;;;;5000738;28;20195;-54
2023/06/01 11:16:32;;;;;;;6.40;5.93;;;26.30;95.40;;;;;;5002598;28;20199;-54
2023/06/01 11:19:02;;;;;;;6.90;5.83;;;26.10;95.00;;;;;;5020564;28;20219;-54
2023/06/01 11:21:30;;;;;;;10.67;5.77;;;26.00;95.80;;;;;;5028155;28;20569;-54
2023/06/01 11:23:59;;;;;;;6.33;5.87;;;26.00;98.10;;;;;;5002117;28;20265;-54
2023/06/01 11:26:31;;;;;;;6.53;5.93;;;25.90;96.10;;;;;;5002748;28;20211;-53
2023/06/01 11:29:07;;;;;;;7.50;6.93;;;25.90;96.70;;;;;;5003429;28;20246;-54
2023/06/01 11:31:38;;;;;;;6.33;5.73;;;25.80;97.30;;;;;;5002320;28;20195;-54
2023/06/01 11:34:05;;;;;;;6.07;5.60;;;25.60;97.00;;;;;;5004059;28;20207;-54
2023/06/01 11:36:38;;;;;;;5.90;5.50;;;25.50;98.20;;;;;;5001716;28;20196;-54
2023/06/01 11:39:10;;;;;;;5.87;5.37;;;25.80;96.30;;;;;;5009221;28;20229;-54
2023/06/01 11:41:37;;;;;;;8.60;5.80;;;25.70;96.70;;;;;;5014256;28;20232;-54
2023/06/01 11:44:04;;;;;;;6.53;5.30;;;25.60;96.20;;;;;;5003772;28;20205;-54
2023/06/01 11:46:31;;;;;;;10.60;6.27;;;25.80;99.00;;;;;;5015202;28;20257;-53
2023/06/01 11:49:04;;;;;;;8.07;6.30;;;26.00;98.30;;;;;;5031554;28;20220;-53
2023/06/01 11:51:32;;;;;;;6.83;6.23;;;25.80;97.70;;;;;;5022455;28;20201;-53
2023/06/01 11:54:03;;;;;;;7.93;5.37;;;25.80;99.00;;;;;;5011451;28;20257;-54
2023/06/01 11:56:31;;;;;;;6.30;5.57;;;25.90;98.50;;;;;;5013171;28;20203;-54
2023/06/01 11:59:00;;;;;;;4.87;4.57;;;25.90;98.70;;;;;;5012528;28;20770;-54
2023/06/01 12:01:27;;;;;;;5.97;5.47;;;25.90;97.70;;;;;;5012782;28;20207;-54
2023/06/01 12:03:56;;;;;;;5.33;4.93;;;25.80;96.80;;;;;;5012212;28;20215;-53
2023/06/01 12:06:26;;;;;;;5.97;4.93;;;25.80;98.00;;;;;;5012550;28;20210;-54
2023/06/01 12:08:54;;;;;;;6.53;6.03;;;26.00;97.10;;;;;;5012490;28;20206;-54
2023/06/01 12:11:22;;;;;;;7.87;5.30;;;26.10;97.40;;;;;;5011775;28;20207;-54
2023/06/01 12:13:50;;;;;;;5.10;4.80;;;26.20;97.10;;;;;;5012342;28;20203;-54
2023/06/01 12:16:17;;;;;;;4.20;3.90;;;26.10;97.40;;;;;;5005346;28;20235;-53
2023/06/01 12:18:44;;;;;;;6.00;5.50;;;25.90;95.80;;;;;;5002078;28;20222;-54
2023/06/01 12:21:12;;;;;;;5.60;5.10;;;25.80;96.20;;;;;;5002426;28;20199;-53
2023/06/01 12:23:41;;;;;;;4.90;3.80;;;25.80;97.00;;;;;;5002671;28;20240;-54
2023/06/01 12:26:08;;;;;;;4.67;4.43;;;25.90;97.50;;;;;;5002052;28;20576;-54
2023/06/01 12:28:53;;;;;;;5.63;4.60;;;25.90;98.80;;;;;;5000789;28;20709;-54
2023/06/01 12:31:21;;;;;;;4.93;4.13;;;26.00;97.20;;;;;;5002397;28;20587;-54
2023/06/01 12:33:49;;;;;;;4.37;4.07;;;26.10;98.20;;;;;;5004414;28;20281;-53
2023/06/01 12:36:34;;;;;;;3.80;3.60;;;26.20;97.90;;;;;;5004803;28;20211;-53
2023/06/01 12:39:04;;;;;;;4.80;3.70;;;26.30;96.40;;;;;;5002931;28;20227;-53
2023/06/01 12:41:31;;;;;;;6.40;3.97;;;26.40;96.20;;;;;;5000765;28;20223;-53
2023/06/01 12:43:59;;;;;;;3.90;3.67;;;26.30;96.10;;;;;;5001264;28;20204;-54
2023/06/01 12:46:28;;;;;;;4.67;3.97;;;26.30;96.20;;;;;;5001543;28;20228;-54
2023/06/01 12:49:12;;;;;;;5.17;4.77;;;26.10;95.70;;;;;;5001556;28;20222;-54
2023/06/01 12:51:39;;;;;;;4.87;4.47;;;26.10;97.30;;;;;;5001891;28;20253;-53
2023/06/01 12:54:07;;;;;;;3.43;3.33;;;26.00;96.50;;;;;;4999640;28;20275;-53
2023/06/01 12:56:34;;;;;;;4.83;4.37;;;26.00;96.40;;;;;;5001320;28;20254;-54